Terminal Aerodrome Forecast
Issued by NWS

Home | Current Version | Previous Version | Graphics & Text | Print | Product List | Glossary On
Versions: 1 2 3 4 5 6 7 8 9 10 11 12 13 14 15 16 17 18 19 20
000
FTUS43 KTOP 261700
TAFMHK
TAF
KMHK 261720Z 2618/2718 07013KT P6SM BKN025
     FM262130 08014KT P6SM SCT030
     FM270000 07005KT P6SM SKC
     FM271500 07012G19KT P6SM BKN250=

USA.gov is the U.S. government's official web portal to all federal, state and local government web resources and services.